Peoria, IL (61615)

5:39 AM CDT on September 01, 2015 (GMT -0500)
Chapel Park | | Change Station
CLOSE
Current Station
Personal Weather Station
Location: Peoria, IL
Elevation: 770 ft
Nearby Weather Stations

Elev 770 ft 40.82 °N, 89.62 °W | Updated 3 seconds ago

Clear
Clear
74.3 °F
Feels Like 73 °F
N
1.0
Wind Variable Wind from SSW
Gusts 4.0 mph

Today
High -- | Low -- °F
--% Chance of Precip.
Yesterday
High -- | Low -- °F
Precip. -- in
6:25 AM 7:31 PM
Waning Gibbous, 90% visible
Pressure 30.02 in
Visibility 5.0 miles
Clouds Few 5500 ft
Heat Index 73 °F
Dew Point 71 °F
Humidity 90%
Rainfall 0.00 in
Snow Depth Not available.
UV 0.0 out of 12
Pollen 10.60 out of 12
Air Quality Not available.
Flu Activity Not available.
METAR KPIA 010954Z 18005KT 5SM BR FEW055 23/21 A3004 RMK AO2 SLP164 T02330211
Pressure 30.02 in
Visibility 5.0 miles
Clouds Few 5500 ft
Heat Index 73 °F
Dew Point 71 °F
Humidity 90%
Rainfall 0.00 in
Snow Depth Not available.
UV 0.0 out of 12
Pollen 10.60 out of 12
Air Quality Not available.
Flu Activity Not available.
METAR KPIA 010954Z 18005KT 5SM BR FEW055 23/21 A3004 RMK AO2 SLP164 T02330211

10-Day Weather Forecast

×

Almanac

Astronomy

Sep. 01, 2015 Rise Set
Actual Time
Civil Twilight
Nautical Twilight
Astronomical Twilight
Moon
Length of Visible Light
Length of Day
Tomorrow will be .
, % of the Moon is Illuminated

Today's Extremes

State Highs State Lows

Community

WunderPhotos

Upload Photos

1,851,501 photos uploaded!

WunderBlogs® & News

Nearby

Air Quality

  Air Quality AQ Index Pollutant
Not available.

Snow Depth

Station Depth Elevation

Earthquake Activity

City Distance Mag. Time & Date
Minimum magnitude displayed is 2.5.

Coastal Water Temperatures

Place Temperature

Stations

Nearby Weather Stations

Station Location Temp. Windchill Dew Point Humidity Wind Precip. Elev Updated Type